createdAt,value
2023-04-08T00:00:02.299Z,19.91
2023-04-08T00:02:29.227Z,20.27
2023-04-08T00:04:55.988Z,19.90
2023-04-08T00:07:22.577Z,20.11
2023-04-08T00:09:49.522Z,20.43
2023-04-08T00:12:16.678Z,19.52
2023-04-08T00:14:43.244Z,20.17
2023-04-08T00:17:09.929Z,17.92
2023-04-08T00:19:36.547Z,17.18
2023-04-08T00:22:03.332Z,17.61
2023-04-08T00:24:29.892Z,17.54
2023-04-08T00:26:56.617Z,18.14
2023-04-08T00:29:23.204Z,17.53
2023-04-08T00:31:49.704Z,18.41
2023-04-08T00:34:16.342Z,18.78
2023-04-08T00:36:42.879Z,18.60
2023-04-08T00:39:09.453Z,18.49
2023-04-08T00:41:36.150Z,17.94
2023-04-08T00:44:02.744Z,19.97
2023-04-08T00:46:30.918Z,19.85
2023-04-08T00:48:59.888Z,18.83
2023-04-08T00:51:26.449Z,18.61
2023-04-08T00:53:53.006Z,18.39
2023-04-08T00:56:19.613Z,18.63
2023-04-08T00:58:46.180Z,19.63
2023-04-08T01:01:23.555Z,19.22
2023-04-08T01:04:17.267Z,18.19
2023-04-08T01:06:56.283Z,17.58
2023-04-08T01:09:27.926Z,17.59
2023-04-08T01:11:59.448Z,18.48
2023-04-08T01:14:28.929Z,16.80
2023-04-08T01:16:58.866Z,17.24
2023-04-08T01:19:35.796Z,16.74
2023-04-08T01:22:15.402Z,17.56
2023-04-08T01:24:45.597Z,16.66
2023-04-08T01:27:14.370Z,15.38
2023-04-08T01:29:44.140Z,14.44
2023-04-08T01:32:13.486Z,14.50
2023-04-08T01:34:41.653Z,14.28
2023-04-08T01:37:08.782Z,14.65
2023-04-08T01:39:39.400Z,15.25
2023-04-08T01:42:06.158Z,14.12
2023-04-08T01:44:35.902Z,14.40
2023-04-08T01:47:03.945Z,14.64
2023-04-08T01:49:31.469Z,13.53
2023-04-08T01:52:00.582Z,14.12
2023-04-08T01:54:27.139Z,13.67
2023-04-08T01:56:57.185Z,14.24
2023-04-08T01:59:29.826Z,13.99
2023-04-08T02:01:57.454Z,13.60
2023-04-08T02:04:24.158Z,13.99
2023-04-08T02:06:50.908Z,13.86
2023-04-08T02:09:17.448Z,14.71
2023-04-08T02:11:44.008Z,14.47
2023-04-08T02:14:10.943Z,14.59
2023-04-08T02:16:49.900Z,15.44
2023-04-08T02:19:25.574Z,15.12
2023-04-08T02:22:18.387Z,14.92
2023-04-08T02:24:47.327Z,13.95
2023-04-08T02:27:14.066Z,15.35
2023-04-08T02:29:42.827Z,16.26
2023-04-08T02:32:12.135Z,15.58
2023-04-08T02:34:41.669Z,14.66
2023-04-08T02:37:09.292Z,13.74
2023-04-08T02:39:36.008Z,14.59
2023-04-08T02:42:04.298Z,14.57
2023-04-08T02:44:31.318Z,14.36
2023-04-08T02:46:57.886Z,14.42
2023-04-08T02:49:24.441Z,14.66
2023-04-08T02:51:51.251Z,15.01
2023-04-08T02:54:17.753Z,15.00
2023-04-08T02:56:44.263Z,14.78
2023-04-08T02:59:10.873Z,14.48
2023-04-08T03:01:37.518Z,15.17
2023-04-08T03:04:04.366Z,15.17
2023-04-08T03:06:32.129Z,15.18
2023-04-08T03:08:58.759Z,16.52
2023-04-08T03:11:26.045Z,17.07
2023-04-08T03:13:52.618Z,17.78
2023-04-08T03:16:19.340Z,18.39
2023-04-08T03:18:49.424Z,19.16
2023-04-08T03:21:16.821Z,19.50
2023-04-08T03:23:44.298Z,19.50
2023-04-08T03:26:11.789Z,19.31
2023-04-08T03:28:38.364Z,19.70
2023-04-08T03:31:05.378Z,19.73
2023-04-08T03:33:32.383Z,20.33
2023-04-08T03:35:59.030Z,20.90
2023-04-08T03:38:25.647Z,22.99
2023-04-08T03:40:52.155Z,23.76
2023-04-08T03:43:21.827Z,23.31
2023-04-08T03:45:48.453Z,23.49
2023-04-08T03:48:15.087Z,24.58
2023-04-08T03:50:41.642Z,23.61
2023-04-08T03:53:11.154Z,23.50
2023-04-08T03:55:37.769Z,24.42
2023-04-08T03:58:04.411Z,23.16
2023-04-08T04:00:31.117Z,22.99
2023-04-08T04:02:57.755Z,21.06
2023-04-08T04:05:24.337Z,21.65
2023-04-08T04:07:50.943Z,21.16
2023-04-08T04:10:17.468Z,21.99
2023-04-08T04:12:44.888Z,22.18
2023-04-08T04:15:11.896Z,21.45
2023-04-08T04:17:38.419Z,21.54
2023-04-08T04:20:06.420Z,20.18
2023-04-08T04:22:32.963Z,20.62
2023-04-08T04:24:59.475Z,20.38
2023-04-08T04:27:26.038Z,19.95
2023-04-08T04:29:52.559Z,20.76
2023-04-08T04:32:19.514Z,20.74
2023-04-08T04:34:46.264Z,20.18
2023-04-08T04:37:13.645Z,19.94
2023-04-08T04:39:41.211Z,19.96
2023-04-08T04:42:07.737Z,19.77
2023-04-08T04:44:34.480Z,19.18
2023-04-08T04:47:01.008Z,19.64
2023-04-08T04:49:27.571Z,20.09
2023-04-08T04:51:54.112Z,18.87
2023-04-08T04:54:20.780Z,19.38
2023-04-08T04:56:47.296Z,19.43
2023-04-08T04:59:13.854Z,18.02
2023-04-08T05:01:41.145Z,18.67
2023-04-08T05:04:08.013Z,19.28
2023-04-08T05:06:34.889Z,19.31
2023-04-08T05:09:01.585Z,18.76
2023-04-08T05:11:28.083Z,18.21
2023-04-08T05:13:54.639Z,18.28
2023-04-08T05:16:21.218Z,18.32
2023-04-08T05:18:47.971Z,18.58
2023-04-08T05:21:14.600Z,19.24
2023-04-08T05:23:41.336Z,18.35
2023-04-08T05:26:08.859Z,19.17
2023-04-08T05:28:35.938Z,19.13
2023-04-08T05:31:02.465Z,17.83
2023-04-08T05:33:28.977Z,17.74
2023-04-08T05:35:55.527Z,17.62
2023-04-08T05:38:22.196Z,17.85
2023-04-08T05:40:48.735Z,17.84
2023-04-08T05:43:15.390Z,17.11
2023-04-08T05:45:41.917Z,16.30
2023-04-08T05:48:08.457Z,16.48
2023-04-08T05:50:36.260Z,15.93
2023-04-08T05:53:02.989Z,16.15
2023-04-08T05:55:29.608Z,17.27
2023-04-08T05:57:56.123Z,17.21
2023-04-08T06:00:25.268Z,17.38
2023-04-08T06:02:52.213Z,16.64
2023-04-08T06:05:19.147Z,16.25
2023-04-08T06:07:46.146Z,16.95
2023-04-08T06:10:12.746Z,17.95
2023-04-08T06:12:39.453Z,16.96
2023-04-08T06:15:07.774Z,17.35
2023-04-08T06:17:38.466Z,17.19
2023-04-08T06:20:06.607Z,16.70
2023-04-08T06:22:33.107Z,17.22
2023-04-08T06:24:59.715Z,18.07
2023-04-08T06:27:26.376Z,17.89
2023-04-08T06:29:53.321Z,17.37
2023-04-08T06:32:20.016Z,17.73
2023-04-08T06:34:46.614Z,18.60
2023-04-08T06:37:13.433Z,18.05
2023-04-08T06:39:39.981Z,18.81
2023-04-08T06:42:06.728Z,18.73
2023-04-08T06:44:33.318Z,19.61
2023-04-08T06:47:00.216Z,19.38
2023-04-08T06:49:27.384Z,18.52
2023-04-08T06:51:54.135Z,19.10
2023-04-08T06:54:20.639Z,20.16
2023-04-08T06:56:47.540Z,21.33
2023-04-08T06:59:14.130Z,20.89
2023-04-08T07:01:41.694Z,21.25
2023-04-08T07:04:08.326Z,20.79
2023-04-08T07:06:34.825Z,20.55
2023-04-08T07:09:01.366Z,20.10
2023-04-08T07:11:27.968Z,19.90
2023-04-08T07:13:54.488Z,20.38
2023-04-08T07:16:21.129Z,20.17
2023-04-08T07:18:47.880Z,19.23
2023-04-08T07:21:14.548Z,19.14
2023-04-08T07:23:41.132Z,19.20
2023-04-08T07:26:07.760Z,18.69
2023-04-08T07:28:34.303Z,18.67
2023-04-08T07:31:16.061Z,17.08
2023-04-08T07:33:43.917Z,16.60
2023-04-08T07:36:11.902Z,15.88
2023-04-08T07:38:41.251Z,17.37
2023-04-08T07:41:08.052Z,16.23
2023-04-08T07:43:36.313Z,16.33
2023-04-08T07:46:06.973Z,16.06
2023-04-08T07:48:35.169Z,16.00
2023-04-08T07:51:10.660Z,15.77
2023-04-08T07:53:39.571Z,14.98
2023-04-08T07:56:16.353Z,15.21
2023-04-08T07:58:44.841Z,15.38
2023-04-08T08:01:22.450Z,15.28
2023-04-08T08:03:52.186Z,17.08
2023-04-08T08:06:19.338Z,15.66
2023-04-08T08:08:46.223Z,15.17
2023-04-08T08:11:13.070Z,15.28
2023-04-08T08:13:39.669Z,15.39
2023-04-08T08:16:08.980Z,14.65
2023-04-08T08:18:36.364Z,14.98
2023-04-08T08:21:03.344Z,15.13
2023-04-08T08:23:29.944Z,14.75
2023-04-08T08:26:03.550Z,14.62
2023-04-08T08:28:30.216Z,14.73
2023-04-08T08:30:57.177Z,14.99
2023-04-08T08:33:24.734Z,14.96
2023-04-08T08:35:52.220Z,15.16
2023-04-08T08:38:18.801Z,15.14
2023-04-08T08:40:45.778Z,15.35
2023-04-08T08:43:12.448Z,15.54
2023-04-08T08:45:40.937Z,15.28
2023-04-08T08:48:11.257Z,15.42
2023-04-08T08:50:38.090Z,15.06
2023-04-08T08:53:04.669Z,14.95
2023-04-08T08:55:50.894Z,14.21
2023-04-08T08:58:20.391Z,14.47
2023-04-08T09:00:47.016Z,14.96
2023-04-08T09:03:30.052Z,14.21
2023-04-08T09:06:01.735Z,14.17
2023-04-08T09:08:33.980Z,14.45
2023-04-08T09:11:18.637Z,14.20
2023-04-08T09:13:46.534Z,14.80
2023-04-08T09:16:18.566Z,15.12
2023-04-08T09:18:47.233Z,15.66
2023-04-08T09:21:16.778Z,15.76
2023-04-08T09:23:50.623Z,15.32
2023-04-08T09:26:24.129Z,16.07
2023-04-08T09:29:18.428Z,15.47
2023-04-08T09:31:56.736Z,15.99
2023-04-08T09:34:24.525Z,16.13
2023-04-08T09:36:52.158Z,16.20
2023-04-08T09:39:19.260Z,16.13
2023-04-08T09:41:49.516Z,16.38
2023-04-08T09:44:18.446Z,17.02
2023-04-08T09:46:50.835Z,17.65
2023-04-08T09:49:38.224Z,17.05
2023-04-08T09:52:10.586Z,17.15
2023-04-08T09:55:03.773Z,17.19
2023-04-08T09:57:55.656Z,16.33
2023-04-08T10:00:31.385Z,15.77
2023-04-08T10:03:19.367Z,14.84
2023-04-08T10:05:47.339Z,15.33
2023-04-08T10:08:15.893Z,15.45
2023-04-08T10:10:43.677Z,14.96
2023-04-08T10:13:10.443Z,14.77
2023-04-08T10:15:38.302Z,14.41
2023-04-08T10:18:05.461Z,14.74
2023-04-08T10:20:35.556Z,14.09
2023-04-08T10:23:14.268Z,14.58
2023-04-08T10:25:45.918Z,13.79
2023-04-08T10:28:17.526Z,13.85
2023-04-08T10:30:51.073Z,13.85
2023-04-08T10:33:40.708Z,14.32
2023-04-08T10:36:09.596Z,14.16
2023-04-08T10:38:36.156Z,14.16
2023-04-08T10:41:02.704Z,13.78
2023-04-08T10:43:33.899Z,13.84
2023-04-08T10:46:01.439Z,13.39
2023-04-08T10:48:30.693Z,13.32
2023-04-08T10:51:04.863Z,14.19
2023-04-08T10:53:33.953Z,14.40
2023-04-08T10:56:07.995Z,14.27
2023-04-08T10:58:36.502Z,14.26
2023-04-08T11:01:07.867Z,14.46
2023-04-08T11:03:37.225Z,13.72
2023-04-08T11:06:05.154Z,14.60
2023-04-08T11:08:34.394Z,13.83
2023-04-08T11:11:06.762Z,13.76
2023-04-08T11:13:33.546Z,13.74
2023-04-08T11:16:01.121Z,13.59
2023-04-08T11:18:28.627Z,13.52
2023-04-08T11:20:58.341Z,13.03
2023-04-08T11:23:27.378Z,13.68
2023-04-08T11:25:54.450Z,13.01
2023-04-08T11:28:22.178Z,12.27
2023-04-08T11:30:49.590Z,12.61
2023-04-08T11:33:16.653Z,12.47
2023-04-08T11:35:44.329Z,12.44
2023-04-08T11:38:12.810Z,12.28
2023-04-08T11:40:39.502Z,13.00
2023-04-08T11:43:13.049Z,12.16
2023-04-08T11:45:40.929Z,12.96
2023-04-08T11:48:15.489Z,12.88
2023-04-08T11:50:43.977Z,13.28
2023-04-08T11:53:19.784Z,12.69
2023-04-08T11:55:47.474Z,11.96
2023-04-08T11:58:15.025Z,11.29
2023-04-08T12:00:42.775Z,11.90
2023-04-08T12:03:10.703Z,11.30
2023-04-08T12:05:37.389Z,10.20
2023-04-08T12:08:04.289Z,10.23
2023-04-08T12:10:31.171Z,10.49
2023-04-08T12:12:57.652Z,10.38
2023-04-08T12:15:25.423Z,9.50
2023-04-08T12:17:52.001Z,8.63
2023-04-08T12:20:18.592Z,8.77
2023-04-08T12:22:45.422Z,9.07
2023-04-08T12:25:12.299Z,8.93
2023-04-08T12:27:38.806Z,8.66
2023-04-08T12:30:05.818Z,8.09
2023-04-08T12:32:32.415Z,9.10
2023-04-08T12:34:58.932Z,9.03
2023-04-08T12:37:25.453Z,9.15
2023-04-08T12:39:53.547Z,9.11
2023-04-08T12:42:20.113Z,9.28
2023-04-08T12:44:46.603Z,9.79
2023-04-08T12:47:13.269Z,9.67
2023-04-08T12:52:09.397Z,9.22
2023-04-08T12:54:36.039Z,8.48
2023-04-08T12:57:02.794Z,5.93
2023-04-08T12:59:29.364Z,6.72
2023-04-08T13:01:56.091Z,8.09
2023-04-08T13:04:22.649Z,9.65
2023-04-08T13:06:49.184Z,8.88
2023-04-08T13:09:15.842Z,10.64
2023-04-08T13:11:42.636Z,11.27
2023-04-08T13:14:09.152Z,12.41
2023-04-08T13:16:35.719Z,12.72
2023-04-08T13:19:02.266Z,13.46
2023-04-08T13:21:28.792Z,12.89
2023-04-08T13:23:55.410Z,13.19
2023-04-08T13:26:22.155Z,13.60
2023-04-08T13:29:00.664Z,14.03
2023-04-08T13:31:27.737Z,12.82
2023-04-08T13:33:57.687Z,13.65
2023-04-08T13:36:24.601Z,12.67
2023-04-08T13:38:51.879Z,12.63
2023-04-08T13:41:21.111Z,12.62
2023-04-08T13:43:47.710Z,12.36
2023-04-08T13:46:14.396Z,12.78
2023-04-08T13:48:41.253Z,11.91
2023-04-08T13:51:08.332Z,12.16
2023-04-08T13:53:34.807Z,11.71
2023-04-08T13:56:01.378Z,12.12
2023-04-08T13:58:28.358Z,12.33
2023-04-08T14:00:55.073Z,11.99
2023-04-08T14:03:22.340Z,11.12
2023-04-08T14:05:50.816Z,11.30
2023-04-08T14:08:18.490Z,11.67
2023-04-08T14:10:45.035Z,11.88
2023-04-08T14:13:11.561Z,11.64
2023-04-08T14:15:38.141Z,12.41
2023-04-08T14:18:04.743Z,11.90
2023-04-08T14:20:31.789Z,11.22
2023-04-08T14:22:58.419Z,11.73
2023-04-08T14:25:25.731Z,11.72
2023-04-08T14:27:58.421Z,10.62
2023-04-08T14:30:26.814Z,10.29
2023-04-08T14:32:53.965Z,10.58
2023-04-08T14:35:20.715Z,11.27
2023-04-08T14:37:47.266Z,10.64
2023-04-08T14:40:13.863Z,10.36
2023-04-08T14:42:40.685Z,10.14
2023-04-08T14:45:07.781Z,10.48
2023-04-08T14:47:34.472Z,11.22
2023-04-08T14:50:01.029Z,11.68
2023-04-08T14:52:27.725Z,11.54
2023-04-08T14:54:54.280Z,11.94
2023-04-08T14:57:20.909Z,12.73
2023-04-08T14:59:47.555Z,12.05
2023-04-08T15:02:14.334Z,12.68
2023-04-08T15:04:41.236Z,12.19
2023-04-08T15:07:08.134Z,13.32
2023-04-08T15:09:34.742Z,13.53
2023-04-08T15:12:01.772Z,12.88
2023-04-08T15:14:28.467Z,13.13
2023-04-08T15:16:55.429Z,13.08
2023-04-08T15:19:22.023Z,12.34
2023-04-08T15:21:48.524Z,12.89
2023-04-08T15:24:15.294Z,13.45
2023-04-08T15:26:42.349Z,13.18
2023-04-08T15:29:09.076Z,13.27
2023-04-08T15:31:35.909Z,13.09
2023-04-08T15:34:03.578Z,12.84
2023-04-08T15:36:30.809Z,13.08
2023-04-08T15:38:57.366Z,13.32
2023-04-08T15:41:23.865Z,12.43
2023-04-08T15:43:51.941Z,11.68
2023-04-08T15:46:20.385Z,11.10
2023-04-08T15:48:47.685Z,12.44
2023-04-08T15:51:14.296Z,12.74
2023-04-08T15:53:41.532Z,12.05
2023-04-08T15:56:18.017Z,12.65
2023-04-08T15:58:45.992Z,12.18
2023-04-08T16:01:13.270Z,12.36
2023-04-08T16:03:39.869Z,11.93
2023-04-08T16:06:07.350Z,12.24
2023-04-08T16:08:34.772Z,12.29
2023-04-08T16:11:03.872Z,14.97
2023-04-08T16:13:31.120Z,15.76
2023-04-08T16:15:58.729Z,15.14
2023-04-08T16:18:25.916Z,13.86
2023-04-08T16:20:53.088Z,15.13
2023-04-08T16:23:20.031Z,15.79
2023-04-08T16:25:47.421Z,15.66
2023-04-08T16:28:14.246Z,14.67
2023-04-08T16:30:44.249Z,15.71
2023-04-08T16:33:13.838Z,15.34
2023-04-08T16:35:40.453Z,17.27
2023-04-08T16:38:07.081Z,17.61
2023-04-08T16:40:34.594Z,18.93
2023-04-08T16:43:02.540Z,19.98
2023-04-08T16:45:30.170Z,19.71
2023-04-08T16:47:57.499Z,19.08
2023-04-08T16:50:24.728Z,20.61
2023-04-08T16:52:51.725Z,21.38
2023-04-08T16:55:19.520Z,21.60
2023-04-08T16:57:46.596Z,21.80
2023-04-08T17:00:13.548Z,22.92
2023-04-08T17:02:40.470Z,23.05
2023-04-08T17:05:07.632Z,23.35
2023-04-08T17:07:34.557Z,23.69
2023-04-08T17:10:01.105Z,23.65
2023-04-08T17:12:27.759Z,23.86
2023-04-08T17:14:55.382Z,22.98
2023-04-08T17:17:21.922Z,22.29
2023-04-08T17:19:48.557Z,23.42
2023-04-08T17:22:15.201Z,22.92
2023-04-08T17:24:44.440Z,22.93
2023-04-08T17:27:12.517Z,23.21
2023-04-08T17:29:39.100Z,24.62
2023-04-08T17:32:05.761Z,24.75
2023-04-08T17:34:33.702Z,24.74
2023-04-08T17:37:00.252Z,23.70
2023-04-08T17:39:27.883Z,22.69
2023-04-08T17:41:54.474Z,23.34
2023-04-08T17:44:21.644Z,22.94
2023-04-08T17:46:49.519Z,21.68
2023-04-08T17:49:16.596Z,23.47
2023-04-08T17:51:43.092Z,22.14
2023-04-08T17:54:09.630Z,21.33
2023-04-08T17:56:36.183Z,22.36
2023-04-08T17:59:02.814Z,22.47
2023-04-08T18:01:29.546Z,22.06
2023-04-08T18:03:56.314Z,21.23
2023-04-08T18:06:23.021Z,21.35
2023-04-08T18:08:49.662Z,22.30
2023-04-08T18:11:16.228Z,20.73
2023-04-08T18:13:42.794Z,22.58
2023-04-08T18:16:20.783Z,22.88
2023-04-08T18:18:48.283Z,23.23
2023-04-08T18:21:18.046Z,21.75
2023-04-08T18:23:48.862Z,22.41
2023-04-08T18:26:15.576Z,23.03
2023-04-08T18:28:42.190Z,22.31
2023-04-08T18:31:08.864Z,22.42
2023-04-08T18:33:35.621Z,22.94
2023-04-08T18:36:10.215Z,22.20
2023-04-08T18:38:36.921Z,21.36
2023-04-08T18:41:04.467Z,22.21
2023-04-08T18:43:33.685Z,22.22
2023-04-08T18:46:00.457Z,22.27
2023-04-08T18:48:27.388Z,22.44
2023-04-08T18:50:54.811Z,21.35
2023-04-08T18:53:21.973Z,21.49
2023-04-08T18:55:48.556Z,22.18
2023-04-08T18:58:15.179Z,23.18
2023-04-08T19:00:42.003Z,21.52
2023-04-08T19:03:10.229Z,21.48
2023-04-08T19:05:37.667Z,21.73
2023-04-08T19:08:05.431Z,22.51
2023-04-08T19:10:34.053Z,21.98
2023-04-08T19:13:01.663Z,21.44
2023-04-08T19:15:28.952Z,22.22
2023-04-08T19:17:56.446Z,24.11
2023-04-08T19:20:23.333Z,24.74
2023-04-08T19:22:50.344Z,24.73
2023-04-08T19:25:17.371Z,22.98
2023-04-08T19:27:46.051Z,23.57
2023-04-08T19:30:13.375Z,23.14
2023-04-08T19:32:40.119Z,23.03
2023-04-08T19:35:07.370Z,21.76
2023-04-08T19:37:34.081Z,23.28
2023-04-08T19:40:00.661Z,23.57
2023-04-08T19:42:27.253Z,23.30
2023-04-08T19:44:53.849Z,24.13
2023-04-08T19:47:20.442Z,24.19
2023-04-08T19:49:47.013Z,24.68
2023-04-08T19:52:13.577Z,22.94
2023-04-08T19:54:41.327Z,23.22
2023-04-08T19:57:09.244Z,23.71
2023-04-08T19:59:35.776Z,23.48
2023-04-08T20:02:05.521Z,22.71
2023-04-08T20:04:32.654Z,23.74
2023-04-08T20:07:02.529Z,22.87
2023-04-08T20:09:32.605Z,22.11
2023-04-08T20:12:06.327Z,22.61
2023-04-08T20:14:35.393Z,22.78
2023-04-08T20:17:02.345Z,23.15
2023-04-08T20:19:28.838Z,23.23
2023-04-08T20:21:56.128Z,22.83
2023-04-08T20:24:23.230Z,22.90
2023-04-08T20:26:50.039Z,24.00
2023-04-08T20:29:16.650Z,22.88
2023-04-08T20:31:44.629Z,22.22
2023-04-08T20:34:11.645Z,23.82
2023-04-08T20:36:39.873Z,23.60
2023-04-08T20:39:10.713Z,26.06
2023-04-08T20:41:37.587Z,26.21
2023-04-08T20:44:06.068Z,25.71
2023-04-08T20:46:32.872Z,25.72
2023-04-08T20:48:59.495Z,26.47
2023-04-08T20:51:27.172Z,26.36
2023-04-08T20:53:53.730Z,25.80
2023-04-08T20:56:20.965Z,26.44
2023-04-08T20:58:47.586Z,26.77
2023-04-08T21:01:14.168Z,25.40
2023-04-08T21:03:40.952Z,26.37
2023-04-08T21:06:07.687Z,26.11
2023-04-08T21:08:34.258Z,24.54
2023-04-08T21:11:00.796Z,23.85
2023-04-08T21:13:27.324Z,24.86
2023-04-08T21:15:53.879Z,22.99
2023-04-08T21:18:20.398Z,23.52
2023-04-08T21:20:47.025Z,23.50
2023-04-08T21:23:13.675Z,22.49
2023-04-08T21:25:40.351Z,22.47
2023-04-08T21:28:06.894Z,22.46
2023-04-08T21:30:33.445Z,23.11
2023-04-08T21:33:00.163Z,23.69
2023-04-08T21:35:26.753Z,23.76
2023-04-08T21:37:53.322Z,24.85
2023-04-08T21:40:19.890Z,25.15
2023-04-08T21:42:46.506Z,25.28
2023-04-08T21:45:13.274Z,24.69
2023-04-08T21:47:39.908Z,25.28
2023-04-08T21:50:07.759Z,25.55
2023-04-08T21:52:34.365Z,25.92
2023-04-08T21:55:00.938Z,25.73
2023-04-08T21:57:27.982Z,24.65
2023-04-08T21:59:54.517Z,25.40
2023-04-08T22:02:21.398Z,24.68
2023-04-08T22:04:48.914Z,25.63
2023-04-08T22:07:16.017Z,26.01
2023-04-08T22:09:42.643Z,27.67
2023-04-08T22:12:10.049Z,28.97
2023-04-08T22:14:37.070Z,29.07
2023-04-08T22:17:04.654Z,30.40
2023-04-08T22:19:31.353Z,30.26
2023-04-08T22:21:57.909Z,29.88
2023-04-08T22:24:24.497Z,28.94
2023-04-08T22:26:53.016Z,29.20
2023-04-08T22:29:19.554Z,31.32
2023-04-08T22:31:46.322Z,30.69
2023-04-08T22:34:12.887Z,30.06
2023-04-08T22:36:39.397Z,30.77
2023-04-08T22:39:06.186Z,32.15
2023-04-08T22:41:32.734Z,33.58
2023-04-08T22:43:59.244Z,35.05
2023-04-08T22:46:25.810Z,35.33
2023-04-08T22:48:52.569Z,33.78
2023-04-08T22:51:19.340Z,32.92
2023-04-08T22:53:46.012Z,33.90
2023-04-08T22:56:12.580Z,34.34
2023-04-08T22:58:39.081Z,35.45
2023-04-08T23:01:17.129Z,35.58
2023-04-08T23:03:44.452Z,35.23
2023-04-08T23:06:11.479Z,35.16
2023-04-08T23:08:38.827Z,35.21
2023-04-08T23:11:06.391Z,34.35
2023-04-08T23:13:33.052Z,34.97
2023-04-08T23:15:59.806Z,35.55
2023-04-08T23:18:26.392Z,36.37
2023-04-08T23:20:55.656Z,35.17
2023-04-08T23:23:26.149Z,35.25
2023-04-08T23:25:55.579Z,36.25
2023-04-08T23:28:22.838Z,36.38
2023-04-08T23:30:49.639Z,36.84
2023-04-08T23:33:16.349Z,35.54
2023-04-08T23:35:42.889Z,34.93
2023-04-08T23:38:09.518Z,34.96
2023-04-08T23:40:37.061Z,35.29
2023-04-08T23:43:03.594Z,36.21
2023-04-08T23:45:30.333Z,36.66
2023-04-08T23:47:56.935Z,35.56
2023-04-08T23:50:23.574Z,35.12
2023-04-08T23:52:50.185Z,35.71
2023-04-08T23:55:16.782Z,33.98
2023-04-08T23:57:46.212Z,35.23
